Current Weather

Sarh (Civ/Mil)

Sarh (Civ/Mil), Chad (FTTA)

Report from: Monday, February 6, 2023 6:00 AM WAT
Current time: Monday, February 6, 2023 6:39 AM WAT

Nearby weather
Weather history
Weather forecast

Temperature18.0°C (64.4°F)
Dew point7.0°C (44.6°F)
Winds 2 kts (1 m/s, 2.3 mph) Northwest (320°)
Clouds Sky clear
Altimeter29.83 in.Hg (1010 mB)
Relative humidity49 %
Density altitude608 ft. (185 m)
Remarks Ceiling and visibility OK
Flight conditions Visual Meteorological Conditions
Raw dataFTTA 060500Z 32002KT CAVOK 18/07 Q1010
An error has occurred. This application may no longer respond until reloaded. Reload 🗙